createdAt,value
2022-09-18T00:02:25.169Z,24.55
2022-09-18T00:04:59.549Z,25.52
2022-09-18T00:07:30.507Z,23.17
2022-09-18T00:10:04.591Z,24.70
2022-09-18T00:12:37.411Z,25.77
2022-09-18T00:15:13.633Z,25.30
2022-09-18T00:17:47.243Z,27.20
2022-09-18T00:20:18.222Z,27.88
2022-09-18T00:22:58.827Z,30.40
2022-09-18T00:25:33.218Z,28.35
2022-09-18T00:28:07.736Z,26.90
2022-09-18T00:30:41.333Z,27.30
2022-09-18T00:33:14.423Z,27.02
2022-09-18T00:35:50.458Z,25.63
2022-09-18T00:38:23.597Z,26.52
2022-09-18T00:40:58.047Z,25.73
2022-09-18T00:43:33.581Z,24.23
2022-09-18T00:46:17.649Z,28.38
2022-09-18T00:48:59.175Z,27.00
2022-09-18T00:51:42.672Z,28.53
2022-09-18T00:54:25.022Z,31.23
2022-09-18T00:57:03.395Z,32.65
2022-09-18T00:59:38.433Z,41.35
2022-09-18T01:02:15.128Z,43.53
2022-09-18T01:04:47.630Z,51.92
2022-09-18T01:07:43.482Z,34.13
2022-09-18T01:10:39.639Z,30.85
2022-09-18T01:13:39.117Z,28.80
2022-09-18T01:16:30.313Z,29.65
2022-09-18T01:19:31.900Z,30.20
2022-09-18T01:22:14.747Z,27.60
2022-09-18T01:25:03.538Z,26.42
2022-09-18T01:28:03.509Z,27.17
2022-09-18T01:30:37.903Z,31.60
2022-09-18T01:33:52.427Z,30.77
2022-09-18T01:36:30.907Z,32.92
2022-09-18T01:39:28.893Z,36.40
2022-09-18T01:42:02.796Z,39.60
2022-09-18T01:44:36.216Z,37.75
2022-09-18T01:47:11.807Z,33.78
2022-09-18T01:49:51.280Z,33.70
2022-09-18T01:52:57.912Z,33.53
2022-09-18T01:55:35.439Z,33.88
2022-09-18T01:58:21.831Z,32.50
2022-09-18T02:01:02.385Z,31.98
2022-09-18T02:03:58.790Z,32.22
2022-09-18T02:08:15.406Z,26.25
2022-09-18T02:10:35.642Z,27.75
2022-09-18T02:13:18.971Z,25.80
2022-09-18T02:15:52.447Z,32.08
2022-09-18T02:18:37.640Z,29.83
2022-09-18T02:21:16.806Z,32.40
2022-09-18T02:23:49.357Z,32.58
2022-09-18T02:26:22.725Z,31.40
2022-09-18T02:28:56.835Z,33.58
2022-09-18T02:31:28.643Z,26.88
2022-09-18T02:34:02.493Z,27.77
2022-09-18T02:40:11.695Z,33.35
2022-09-18T02:43:06.646Z,31.70
2022-09-18T02:46:09.869Z,33.50
2022-09-18T02:48:44.422Z,27.08
2022-09-18T02:52:11.576Z,25.30
2022-09-18T02:58:35.512Z,30.83
2022-09-18T03:01:11.766Z,30.65
2022-09-18T03:03:45.143Z,30.08
2022-09-18T03:06:17.213Z,33.40
2022-09-18T03:11:20.887Z,30.10
2022-09-18T03:13:52.955Z,32.58
2022-09-18T03:16:24.947Z,33.00
2022-09-18T03:18:57.120Z,34.90
2022-09-18T03:21:31.315Z,35.13
2022-09-18T03:24:04.072Z,39.58
2022-09-18T03:26:38.611Z,34.78
2022-09-18T03:29:14.996Z,36.40
2022-09-18T03:31:46.779Z,36.20
2022-09-18T03:34:20.394Z,35.67
2022-09-18T03:36:52.170Z,36.83
2022-09-18T03:39:23.276Z,37.00
2022-09-18T03:41:57.876Z,36.58
2022-09-18T03:44:30.826Z,36.10
2022-09-18T03:47:08.104Z,34.47
2022-09-18T03:49:40.632Z,38.58
2022-09-18T03:52:12.153Z,32.75
2022-09-18T03:54:50.500Z,35.40
2022-09-18T03:57:41.584Z,34.10
2022-09-18T04:00:32.563Z,34.25
2022-09-18T04:03:10.696Z,35.72
2022-09-18T04:06:01.384Z,32.10
2022-09-18T04:08:55.539Z,29.85
2022-09-18T04:11:36.025Z,29.92
2022-09-18T04:14:09.526Z,28.70
2022-09-18T04:16:41.251Z,30.35
2022-09-18T04:19:35.902Z,30.45
2022-09-18T04:22:07.781Z,28.48
2022-09-18T04:24:42.269Z,28.83
2022-09-18T04:27:14.922Z,28.98
2022-09-18T04:29:48.255Z,29.73
2022-09-18T04:32:20.992Z,27.65
2022-09-18T04:34:52.942Z,26.60
2022-09-18T04:37:24.365Z,26.10
2022-09-18T04:39:56.631Z,25.80
2022-09-18T04:42:28.231Z,25.13
2022-09-18T04:44:59.590Z,23.75
2022-09-18T04:47:32.311Z,22.45
2022-09-18T04:50:03.990Z,22.00
2022-09-18T04:52:34.460Z,23.65
2022-09-18T04:55:07.154Z,23.92
2022-09-18T04:57:43.636Z,23.40
2022-09-18T05:00:14.884Z,23.23
2022-09-18T05:02:46.645Z,24.60
2022-09-18T05:05:22.954Z,23.50
2022-09-18T05:07:54.016Z,27.65
2022-09-18T05:10:26.133Z,25.58
2022-09-18T05:12:57.205Z,25.83
2022-09-18T05:15:30.336Z,24.55
2022-09-18T05:18:11.098Z,23.73
2022-09-18T05:20:43.256Z,27.20
2022-09-18T05:23:14.965Z,28.05
2022-09-18T05:25:46.175Z,26.38
2022-09-18T05:28:21.955Z,27.30
2022-09-18T05:31:04.526Z,26.80
2022-09-18T05:33:46.179Z,27.48
2022-09-18T05:36:17.355Z,27.35
2022-09-18T05:38:50.569Z,27.45
2022-09-18T05:41:24.816Z,28.13
2022-09-18T05:43:55.896Z,26.65
2022-09-18T05:46:27.334Z,26.00
2022-09-18T05:49:03.482Z,27.60
2022-09-18T05:51:34.978Z,26.90
2022-09-18T05:54:07.000Z,27.83
2022-09-18T05:56:43.668Z,31.65
2022-09-18T05:59:17.336Z,30.75
2022-09-18T06:01:51.792Z,27.08
2022-09-18T06:04:48.332Z,24.63
2022-09-18T06:09:50.819Z,24.25
2022-09-18T06:12:21.307Z,27.17
2022-09-18T06:14:52.778Z,25.35
2022-09-18T06:17:24.317Z,25.65
2022-09-18T06:19:58.187Z,26.17
2022-09-18T06:22:29.666Z,25.03
2022-09-18T06:25:01.829Z,22.70
2022-09-18T06:27:36.941Z,24.85
2022-09-18T06:30:30.727Z,24.60
2022-09-18T06:33:35.922Z,26.60
2022-09-18T06:36:11.483Z,27.05
2022-09-18T06:38:54.513Z,26.15
2022-09-18T06:41:26.867Z,24.45
2022-09-18T06:43:58.360Z,26.33
2022-09-18T06:46:37.646Z,27.88
2022-09-18T06:49:19.777Z,28.00
2022-09-18T06:51:51.729Z,30.70
2022-09-18T06:54:22.532Z,27.50
2022-09-18T06:56:54.119Z,28.70
2022-09-18T06:59:25.604Z,28.42
2022-09-18T07:01:56.948Z,27.70
2022-09-18T07:04:48.719Z,27.83
2022-09-18T07:07:21.595Z,27.73
2022-09-18T07:09:55.454Z,25.92
2022-09-18T07:12:38.705Z,25.67
2022-09-18T07:15:12.095Z,26.70
2022-09-18T07:17:46.674Z,25.05
2022-09-18T07:20:21.473Z,22.77
2022-09-18T07:23:07.146Z,24.90
2022-09-18T07:25:48.523Z,22.08
2022-09-18T07:28:21.637Z,22.27
2022-09-18T07:31:06.842Z,21.98
2022-09-18T07:33:39.698Z,20.38
2022-09-18T07:36:11.769Z,20.08
2022-09-18T07:38:43.097Z,21.60
2022-09-18T07:43:51.161Z,20.05
2022-09-18T07:46:24.067Z,19.10
2022-09-18T07:49:01.768Z,21.70
2022-09-18T07:51:35.350Z,17.90
2022-09-18T07:54:07.879Z,17.92
2022-09-18T07:56:55.735Z,21.08
2022-09-18T07:59:31.024Z,20.05
2022-09-18T08:02:06.976Z,20.95
2022-09-18T08:04:43.679Z,19.63
2022-09-18T08:07:23.683Z,20.70
2022-09-18T08:12:45.459Z,19.65
2022-09-18T08:15:45.227Z,18.70
2022-09-18T08:18:30.292Z,18.75
2022-09-18T08:21:28.451Z,19.08
2022-09-18T08:23:59.744Z,19.20
2022-09-18T08:26:30.885Z,19.80
2022-09-18T08:29:02.282Z,25.23
2022-09-18T08:31:33.331Z,18.70
2022-09-18T08:34:07.176Z,21.55
2022-09-18T08:36:46.592Z,21.13
2022-09-18T08:39:24.607Z,19.77
2022-09-18T08:42:26.968Z,17.35
2022-09-18T08:45:05.822Z,24.27
2022-09-18T08:47:49.875Z,19.42
2022-09-18T08:50:38.751Z,20.58
2022-09-18T08:53:31.226Z,19.70
2022-09-18T08:56:29.356Z,21.13
2022-09-18T08:59:34.869Z,30.90
2022-09-18T09:02:24.961Z,19.15
2022-09-18T09:05:05.925Z,20.77
2022-09-18T09:07:54.980Z,19.55
2022-09-18T09:10:51.508Z,20.85
2022-09-18T09:13:43.380Z,20.17
2022-09-18T09:16:20.442Z,20.60
2022-09-18T09:19:21.637Z,21.92
2022-09-18T09:22:27.029Z,21.92
2022-09-18T09:25:30.130Z,24.65
2022-09-18T09:28:54.751Z,22.60
2022-09-18T09:31:51.962Z,24.10
2022-09-18T09:35:20.032Z,25.20
2022-09-18T09:38:36.577Z,27.58
2022-09-18T09:41:32.656Z,25.25
2022-09-18T09:44:17.886Z,26.85
2022-09-18T09:46:57.387Z,27.25
2022-09-18T09:50:09.264Z,24.90
2022-09-18T09:52:44.572Z,24.60
2022-09-18T09:55:22.142Z,22.75
2022-09-18T09:58:41.048Z,24.60
2022-09-18T10:01:19.203Z,23.70
2022-09-18T10:03:57.748Z,22.80
2022-09-18T10:06:38.098Z,22.52
2022-09-18T10:09:31.457Z,22.02
2022-09-18T10:12:18.696Z,20.08
2022-09-18T10:14:58.358Z,22.17
2022-09-18T10:17:32.754Z,22.20
2022-09-18T10:20:08.006Z,21.75
2022-09-18T10:22:39.829Z,22.10
2022-09-18T10:25:23.031Z,20.10
2022-09-18T10:27:58.224Z,21.25
2022-09-18T10:30:33.805Z,23.90
2022-09-18T10:33:27.639Z,24.38
2022-09-18T10:36:25.054Z,26.90
2022-09-18T10:39:04.350Z,27.92
2022-09-18T10:41:42.656Z,29.55
2022-09-18T10:44:23.645Z,21.52
2022-09-18T10:47:23.197Z,48.42
2022-09-18T10:50:10.299Z,21.55
2022-09-18T10:52:51.226Z,24.77
2022-09-18T10:55:36.182Z,23.83
2022-09-18T10:58:16.977Z,23.77
2022-09-18T11:01:06.937Z,29.80
2022-09-18T11:03:47.026Z,19.60
2022-09-18T11:06:31.476Z,22.15
2022-09-18T11:09:14.643Z,26.25
2022-09-18T11:11:52.563Z,21.60
2022-09-18T11:14:33.870Z,22.00
2022-09-18T11:17:17.750Z,26.75
2022-09-18T11:19:54.079Z,28.95
2022-09-18T11:22:50.584Z,20.17
2022-09-18T11:25:30.968Z,29.20
2022-09-18T11:28:31.287Z,25.60
2022-09-18T11:31:17.737Z,37.45
2022-09-18T11:34:04.174Z,28.17
2022-09-18T11:36:42.377Z,24.10
2022-09-18T11:39:24.571Z,22.70
2022-09-18T11:41:57.088Z,22.25
2022-09-18T11:44:37.850Z,24.10
2022-09-18T11:47:36.886Z,33.35
2022-09-18T11:50:07.949Z,29.40
2022-09-18T11:52:44.880Z,21.90
2022-09-18T11:55:38.005Z,45.47
2022-09-18T11:58:16.959Z,25.30
2022-09-18T12:01:05.040Z,24.55
2022-09-18T12:03:46.803Z,32.63
2022-09-18T12:06:33.276Z,22.02
2022-09-18T12:09:40.127Z,17.58
2022-09-18T12:12:40.144Z,18.98
2022-09-18T12:15:21.954Z,18.05
2022-09-18T12:18:20.567Z,22.75
2022-09-18T12:20:58.720Z,17.73
2022-09-18T12:23:31.647Z,20.10
2022-09-18T12:26:38.244Z,19.23
2022-09-18T12:29:23.558Z,16.80
2022-09-18T12:32:29.875Z,31.83
2022-09-18T12:35:27.142Z,25.67
2022-09-18T12:38:03.410Z,21.33
2022-09-18T12:40:48.703Z,19.15
2022-09-18T12:43:45.268Z,17.17
2022-09-18T12:46:36.126Z,35.95
2022-09-18T12:49:44.060Z,70.03
2022-09-18T12:53:08.548Z,46.15
2022-09-18T12:55:54.119Z,33.85
2022-09-18T12:59:09.270Z,34.65
2022-09-18T13:01:51.316Z,42.40
2022-09-18T13:04:34.222Z,52.13
2022-09-18T13:07:30.453Z,31.52
2022-09-18T13:10:31.004Z,34.72
2022-09-18T13:13:23.546Z,39.15
2022-09-18T13:15:58.652Z,28.75
2022-09-18T13:18:39.305Z,40.35
2022-09-18T13:21:33.645Z,35.95
2022-09-18T13:24:06.513Z,31.73
2022-09-18T13:26:44.513Z,37.38
2022-09-18T13:29:49.930Z,31.60
2022-09-18T13:32:34.016Z,30.05
2022-09-18T13:35:10.445Z,26.42
2022-09-18T13:37:41.095Z,25.40
2022-09-18T13:40:57.698Z,26.20
2022-09-18T13:43:43.867Z,24.73
2022-09-18T13:46:43.141Z,27.08
2022-09-18T13:50:38.598Z,25.30
2022-09-18T13:56:04.449Z,23.88
2022-09-18T13:58:41.885Z,23.48
2022-09-18T14:01:49.280Z,21.40
2022-09-18T14:04:56.132Z,21.65
2022-09-18T14:07:38.993Z,19.77
2022-09-18T14:16:44.964Z,19.75
2022-09-18T14:19:38.693Z,19.83
2022-09-18T14:22:50.268Z,20.17
2022-09-18T14:25:52.881Z,19.88
2022-09-18T14:31:38.544Z,21.65
2022-09-18T14:34:19.396Z,24.08
2022-09-18T14:37:05.560Z,23.70
2022-09-18T14:39:43.119Z,25.00
2022-09-18T14:42:44.158Z,24.27
2022-09-18T14:47:50.841Z,20.67
2022-09-18T14:50:36.383Z,23.10
2022-09-18T14:53:31.122Z,23.75
2022-09-18T14:56:13.835Z,25.70
2022-09-18T14:58:50.976Z,23.48
2022-09-18T15:01:30.243Z,24.10
2022-09-18T15:04:05.183Z,25.58
2022-09-18T15:06:41.992Z,27.85
2022-09-18T15:09:18.858Z,27.15
2022-09-18T15:12:02.350Z,28.92
2022-09-18T15:14:45.560Z,27.20
2022-09-18T15:17:25.666Z,26.63
2022-09-18T15:20:01.890Z,26.17
2022-09-18T15:22:35.286Z,26.48
2022-09-18T15:25:07.747Z,26.33
2022-09-18T15:27:40.144Z,28.17
2022-09-18T15:30:24.782Z,25.70
2022-09-18T15:33:08.536Z,23.50
2022-09-18T15:35:40.406Z,25.38
2022-09-18T15:38:27.856Z,24.90
2022-09-18T15:40:58.260Z,27.92
2022-09-18T15:43:44.744Z,28.70
2022-09-18T15:46:30.690Z,28.90
2022-09-18T15:49:04.532Z,30.83
2022-09-18T15:51:38.566Z,38.85
2022-09-18T15:54:13.136Z,41.22
2022-09-18T15:56:55.355Z,43.28
2022-09-18T15:59:42.170Z,50.63
2022-09-18T16:02:43.622Z,67.78
2022-09-18T16:05:17.191Z,66.22
2022-09-18T16:08:04.461Z,62.33
2022-09-18T16:10:47.882Z,54.38
2022-09-18T16:13:21.468Z,54.58
2022-09-18T16:16:16.190Z,50.50
2022-09-18T16:19:14.935Z,49.92
2022-09-18T16:21:46.491Z,49.20
2022-09-18T16:25:01.373Z,48.88
2022-09-18T16:27:46.968Z,46.83
2022-09-18T16:30:17.923Z,41.10
2022-09-18T16:32:58.428Z,36.05
2022-09-18T16:35:39.213Z,34.17
2022-09-18T16:38:11.462Z,34.47
2022-09-18T16:40:56.991Z,31.70
2022-09-18T16:43:31.467Z,29.52
2022-09-18T16:46:23.031Z,29.52
2022-09-18T16:49:06.198Z,29.27
2022-09-18T16:51:39.987Z,31.15
2022-09-18T16:54:14.001Z,30.05
2022-09-18T16:56:55.023Z,31.10
2022-09-18T16:59:31.435Z,30.38
2022-09-18T17:02:05.268Z,31.27
2022-09-18T17:04:40.146Z,31.58
2022-09-18T17:07:13.966Z,31.98
2022-09-18T17:09:44.973Z,33.38
2022-09-18T17:12:16.442Z,32.95
2022-09-18T17:14:51.421Z,35.13
2022-09-18T17:17:24.811Z,33.30
2022-09-18T17:19:57.128Z,34.28
2022-09-18T17:22:30.387Z,33.60
2022-09-18T17:25:05.135Z,30.08
2022-09-18T17:27:43.825Z,28.40
2022-09-18T17:30:16.370Z,30.83
2022-09-18T17:32:53.763Z,28.63
2022-09-18T17:35:30.640Z,29.25
2022-09-18T17:38:01.098Z,29.35
2022-09-18T17:40:34.724Z,30.05
2022-09-18T17:43:05.163Z,29.17
2022-09-18T17:45:35.958Z,27.27
2022-09-18T17:48:10.905Z,26.83
2022-09-18T17:50:57.105Z,27.95
2022-09-18T17:53:29.609Z,28.98
2022-09-18T17:56:00.832Z,28.70
2022-09-18T17:58:33.044Z,31.67
2022-09-18T18:03:33.535Z,30.85
2022-09-18T18:06:06.775Z,30.98
2022-09-18T18:08:40.867Z,30.33
2022-09-18T18:11:17.985Z,30.40
2022-09-18T18:13:52.087Z,30.63
2022-09-18T18:16:29.306Z,29.50
2022-09-18T18:19:05.253Z,28.52
2022-09-18T18:21:38.063Z,25.52
2022-09-18T18:24:28.799Z,25.92
2022-09-18T18:27:06.079Z,32.15
2022-09-18T18:29:41.499Z,26.58
2022-09-18T18:32:14.656Z,25.42
2022-09-18T18:34:47.543Z,26.10
2022-09-18T18:37:25.018Z,28.38
2022-09-18T18:39:57.021Z,31.73
2022-09-18T18:42:29.730Z,25.33
2022-09-18T18:45:03.187Z,25.27
2022-09-18T18:47:34.473Z,23.98
2022-09-18T18:50:07.135Z,23.38
2022-09-18T18:55:09.363Z,24.33
2022-09-18T18:57:44.495Z,22.67
2022-09-18T19:00:16.856Z,21.25
2022-09-18T19:02:50.705Z,21.60
2022-09-18T19:05:46.302Z,20.50
2022-09-18T19:08:52.324Z,20.10
2022-09-18T19:11:24.972Z,19.13
2022-09-18T19:13:58.403Z,20.67
2022-09-18T19:16:40.099Z,21.52
2022-09-18T19:19:25.075Z,20.08
2022-09-18T19:22:04.119Z,20.08
2022-09-18T19:24:44.552Z,18.70
2022-09-18T19:27:23.566Z,20.83
2022-09-18T19:30:08.419Z,19.88
2022-09-18T19:32:40.805Z,19.08
2022-09-18T19:35:12.317Z,19.35
2022-09-18T19:37:45.202Z,18.80
2022-09-18T19:40:22.039Z,16.95
2022-09-18T19:43:05.007Z,17.63
2022-09-18T19:45:43.681Z,18.30
2022-09-18T19:51:24.051Z,16.10
2022-09-18T19:53:55.632Z,18.23
2022-09-18T19:56:42.142Z,16.30
2022-09-18T19:59:14.482Z,16.65
2022-09-18T20:01:46.615Z,16.95
2022-09-18T20:04:18.638Z,14.63
2022-09-18T20:06:50.275Z,15.38
2022-09-18T20:09:21.741Z,18.30
2022-09-18T20:11:53.628Z,15.65
2022-09-18T20:14:47.087Z,16.15
2022-09-18T20:17:34.156Z,15.85
2022-09-18T20:20:16.172Z,15.45
2022-09-18T20:23:09.344Z,16.00
2022-09-18T20:25:43.209Z,17.45
2022-09-18T20:28:14.435Z,18.42
2022-09-18T20:30:46.400Z,17.60
2022-09-18T20:33:22.851Z,16.85
2022-09-18T20:36:00.622Z,17.45
2022-09-18T20:38:41.972Z,17.73
2022-09-18T20:41:23.491Z,17.90
2022-09-18T20:44:06.597Z,18.35
2022-09-18T20:46:38.327Z,18.05
2022-09-18T20:49:10.255Z,18.67
2022-09-18T20:51:52.399Z,18.70
2022-09-18T20:54:33.374Z,18.80
2022-09-18T20:57:24.410Z,17.45
2022-09-18T20:59:56.438Z,18.40
2022-09-18T21:05:15.954Z,17.13
2022-09-18T21:08:01.928Z,18.88
2022-09-18T21:10:48.631Z,17.77
2022-09-18T21:13:21.786Z,18.92
2022-09-18T21:15:53.019Z,18.98
2022-09-18T21:18:25.738Z,19.65
2022-09-18T21:21:10.109Z,21.27
2022-09-18T21:24:03.405Z,22.55
2022-09-18T21:26:40.449Z,21.85
2022-09-18T21:29:28.415Z,27.73
2022-09-18T21:32:03.018Z,29.52
2022-09-18T21:35:07.059Z,26.73
2022-09-18T21:37:59.006Z,22.50
2022-09-18T21:40:30.128Z,22.17
2022-09-18T21:43:14.025Z,22.27
2022-09-18T21:45:49.801Z,20.58
2022-09-18T21:48:20.808Z,22.55
2022-09-18T21:51:02.756Z,22.20
2022-09-18T21:53:34.846Z,23.92
2022-09-18T21:56:09.589Z,23.73
2022-09-18T21:58:42.450Z,23.67
2022-09-18T22:01:44.656Z,20.63
2022-09-18T22:04:16.459Z,21.65
2022-09-18T22:06:49.017Z,24.27
2022-09-18T22:09:26.178Z,22.05
2022-09-18T22:11:59.321Z,22.35
2022-09-18T22:14:38.505Z,23.52
2022-09-18T22:17:11.472Z,21.50
2022-09-18T22:19:43.928Z,22.02
2022-09-18T22:24:46.753Z,24.58
2022-09-18T22:27:19.538Z,25.38
2022-09-18T22:29:55.370Z,34.80
2022-09-18T22:32:26.761Z,29.80
2022-09-18T22:35:08.417Z,27.45
2022-09-18T22:37:39.758Z,26.67
2022-09-18T22:40:11.860Z,26.35
2022-09-18T22:42:43.690Z,25.20
2022-09-18T22:45:14.851Z,24.00
2022-09-18T22:48:04.822Z,23.15
2022-09-18T22:50:37.281Z,23.10
2022-09-18T22:53:09.230Z,23.80
2022-09-18T22:55:40.572Z,23.25
2022-09-18T22:58:18.850Z,21.35
2022-09-18T23:00:50.813Z,23.98
2022-09-18T23:03:32.424Z,24.13
2022-09-18T23:06:08.133Z,22.58
2022-09-18T23:08:41.589Z,23.88
2022-09-18T23:11:24.090Z,21.42
2022-09-18T23:14:03.728Z,23.10
2022-09-18T23:16:37.876Z,22.88
2022-09-18T23:19:15.256Z,23.13
2022-09-18T23:21:47.175Z,24.95
2022-09-18T23:24:22.466Z,23.70
2022-09-18T23:26:55.441Z,24.98
2022-09-18T23:29:29.151Z,26.38
2022-09-18T23:32:00.844Z,24.67
2022-09-18T23:34:35.529Z,25.10
2022-09-18T23:37:06.346Z,28.80
2022-09-18T23:39:38.289Z,28.00
2022-09-18T23:42:11.361Z,26.33
2022-09-18T23:44:43.914Z,30.08
2022-09-18T23:47:15.373Z,27.20
2022-09-18T23:49:47.327Z,28.05
2022-09-18T23:52:19.308Z,26.95
2022-09-18T23:54:50.805Z,27.20
2022-09-18T23:57:23.918Z,27.73
2022-09-18T23:59:55.868Z,26.88
